Loveland, Ohio
Current Conditions -  °F | °C
As of 10:53 AM on Wednesday 22 Oct 2014 (Local Time) from KLUK Reporting Station
Overcast Overcast  
Wind Chill: 51°   Ceiling: 3600
Heat Index: 51°   Visibility: 10mi
Dew Point: 41°   Wind: 9mph
Humidity: 68%   Direction: 340°NNW
Pressure: 30.31"   Gusts: NA
Location:  39.27°N, 84.26°W
Report Text: KLUK 221453Z 34008KT 10SM OVC036 11/05 A3031 RMK AO2 SLP263 T01060050 51010
Loading
Personal Weather Stations






























Interactive Weather Map
Tropical Storm Tracking
New forecast layout! Learn more

10-Day Weather Forecast

Advertisements
Track Severe Weather on mobile